sensor_id;sensor_type;location;lat;lon;timestamp;pressure;altitude;pressure_sealevel;temperature;humidity
9249;BME280;4660;41.768;26.198;2023-05-16T00:01:16;100718.94;;;16.60;100.00
9249;BME280;4660;41.768;26.198;2023-05-16T00:03:42;100719.47;;;16.55;100.00
9249;BME280;4660;41.768;26.198;2023-05-16T00:06:08;100704.78;;;16.72;100.00
9249;BME280;4660;41.768;26.198;2023-05-16T00:08:34;100698.13;;;16.75;100.00
9249;BME280;4660;41.768;26.198;2023-05-16T00:11:00;100687.16;;;16.60;100.00
9249;BME280;4660;41.768;26.198;2023-05-16T00:13:26;100685.84;;;16.56;100.00
9249;BME280;4660;41.768;26.198;2023-05-16T00:15:52;100695.72;;;16.80;100.00
9249;BME280;4660;41.768;26.198;2023-05-16T00:18:21;100661.75;;;16.53;100.00
9249;BME280;4660;41.768;26.198;2023-05-16T00:20:48;100690.84;;;16.67;100.00
9249;BME280;4660;41.768;26.198;2023-05-16T00:23:14;100680.84;;;16.45;100.00
9249;BME280;4660;41.768;26.198;2023-05-16T00:25:41;100693.84;;;16.27;100.00
9249;BME280;4660;41.768;26.198;2023-05-16T00:28:06;100690.91;;;16.05;100.00
9249;BME280;4660;41.768;26.198;2023-05-16T00:30:33;100682.34;;;15.85;100.00
9249;BME280;4660;41.768;26.198;2023-05-16T00:32:59;100684.22;;;15.85;100.00
9249;BME280;4660;41.768;26.198;2023-05-16T00:35:24;100687.66;;;15.71;100.00
9249;BME280;4660;41.768;26.198;2023-05-16T00:37:50;100684.25;;;15.77;100.00
9249;BME280;4660;41.768;26.198;2023-05-16T00:40:15;100681.25;;;15.63;100.00
9249;BME280;4660;41.768;26.198;2023-05-16T00:42:41;100676.78;;;15.87;100.00
9249;BME280;4660;41.768;26.198;2023-05-16T00:45:07;100690.09;;;16.28;100.00
9249;BME280;4660;41.768;26.198;2023-05-16T00:47:33;100683.22;;;16.17;100.00
9249;BME280;4660;41.768;26.198;2023-05-16T00:50:00;100676.06;;;16.24;100.00
9249;BME280;4660;41.768;26.198;2023-05-16T00:52:26;100675.50;;;16.29;100.00
9249;BME280;4660;41.768;26.198;2023-05-16T00:54:52;100679.84;;;16.15;100.00
9249;BME280;4660;41.768;26.198;2023-05-16T00:57:18;100677.22;;;16.30;100.00
9249;BME280;4660;41.768;26.198;2023-05-16T00:59:45;100669.97;;;16.22;100.00
9249;BME280;4660;41.768;26.198;2023-05-16T01:02:12;100674.84;;;16.27;100.00
9249;BME280;4660;41.768;26.198;2023-05-16T01:04:38;100666.38;;;16.21;100.00
9249;BME280;4660;41.768;26.198;2023-05-16T01:07:04;100671.13;;;15.96;100.00
9249;BME280;4660;41.768;26.198;2023-05-16T01:09:30;100675.13;;;15.69;100.00
9249;BME280;4660;41.768;26.198;2023-05-16T01:20:07;100672.75;;;15.75;100.00
9249;BME280;4660;41.768;26.198;2023-05-16T01:27:46;100665.38;;;15.44;100.00
9249;BME280;4660;41.768;26.198;2023-05-16T01:30:16;100666.00;;;15.54;100.00
9249;BME280;4660;41.768;26.198;2023-05-16T01:32:43;100667.06;;;15.45;100.00
9249;BME280;4660;41.768;26.198;2023-05-16T01:35:11;100667.69;;;15.55;100.00
9249;BME280;4660;41.768;26.198;2023-05-16T01:40:20;100650.53;;;15.16;100.00
9249;BME280;4660;41.768;26.198;2023-05-16T01:42:51;100667.81;;;15.14;100.00
9249;BME280;4660;41.768;26.198;2023-05-16T01:45:23;100669.03;;;14.88;100.00
9249;BME280;4660;41.768;26.198;2023-05-16T01:48:12;100658.22;;;14.79;100.00
9249;BME280;4660;41.768;26.198;2023-05-16T01:50:53;100647.38;;;14.88;100.00
9249;BME280;4660;41.768;26.198;2023-05-16T01:53:21;100656.81;;;15.16;100.00
9249;BME280;4660;41.768;26.198;2023-05-16T01:55:55;100661.16;;;15.33;100.00
9249;BME280;4660;41.768;26.198;2023-05-16T01:58:25;100648.81;;;15.31;100.00
9249;BME280;4660;41.768;26.198;2023-05-16T02:00:52;100645.28;;;15.14;100.00
9249;BME280;4660;41.768;26.198;2023-05-16T02:03:18;100656.31;;;15.04;100.00
9249;BME280;4660;41.768;26.198;2023-05-16T02:05:43;100651.84;;;15.28;100.00
9249;BME280;4660;41.768;26.198;2023-05-16T02:08:09;100643.09;;;15.09;100.00
9249;BME280;4660;41.768;26.198;2023-05-16T02:10:34;100658.50;;;15.09;100.00
9249;BME280;4660;41.768;26.198;2023-05-16T02:13:00;100646.50;;;14.95;100.00
9249;BME280;4660;41.768;26.198;2023-05-16T02:15:25;100603.72;;;14.58;100.00
9249;BME280;4660;41.768;26.198;2023-05-16T02:17:51;100640.75;;;14.82;100.00
9249;BME280;4660;41.768;26.198;2023-05-16T02:20:16;100628.03;;;14.99;100.00
9249;BME280;4660;41.768;26.198;2023-05-16T02:22:42;100639.38;;;15.02;100.00
9249;BME280;4660;41.768;26.198;2023-05-16T02:25:08;100637.34;;;15.04;100.00
9249;BME280;4660;41.768;26.198;2023-05-16T02:27:34;100637.34;;;15.04;100.00
9249;BME280;4660;41.768;26.198;2023-05-16T02:30:00;100628.06;;;14.82;100.00
9249;BME280;4660;41.768;26.198;2023-05-16T02:32:26;100632.66;;;14.74;100.00
9249;BME280;4660;41.768;26.198;2023-05-16T02:34:51;100618.44;;;14.72;100.00
9249;BME280;4660;41.768;26.198;2023-05-16T02:37:17;100622.47;;;14.76;100.00
9249;BME280;4660;41.768;26.198;2023-05-16T02:39:43;100619.28;;;14.80;100.00
9249;BME280;4660;41.768;26.198;2023-05-16T02:42:08;100627.22;;;14.74;100.00
9249;BME280;4660;41.768;26.198;2023-05-16T02:44:34;100612.34;;;14.62;100.00
9249;BME280;4660;41.768;26.198;2023-05-16T02:46:59;100616.41;;;14.66;100.00
9249;BME280;4660;41.768;26.198;2023-05-16T02:49:25;100615.38;;;14.75;100.00
9249;BME280;4660;41.768;26.198;2023-05-16T02:51:50;100605.72;;;14.64;100.00
9249;BME280;4660;41.768;26.198;2023-05-16T02:54:16;100619.09;;;14.74;100.00
9249;BME280;4660;41.768;26.198;2023-05-16T02:56:42;100615.56;;;14.65;100.00
9249;BME280;4660;41.768;26.198;2023-05-16T02:59:09;100615.19;;;14.76;100.00
9249;BME280;4660;41.768;26.198;2023-05-16T03:01:35;100615.38;;;14.83;100.00
9249;BME280;4660;41.768;26.198;2023-05-16T03:04:00;100613.84;;;14.80;100.00
9249;BME280;4660;41.768;26.198;2023-05-16T03:06:26;100609.31;;;14.65;100.00
9249;BME280;4660;41.768;26.198;2023-05-16T03:08:51;100609.31;;;14.65;100.00
9249;BME280;4660;41.768;26.198;2023-05-16T03:11:17;100606.59;;;14.73;100.00
9249;BME280;4660;41.768;26.198;2023-05-16T03:13:47;100605.91;;;14.63;100.00
9249;BME280;4660;41.768;26.198;2023-05-16T03:16:13;100605.72;;;14.56;100.00
9249;BME280;4660;41.768;26.198;2023-05-16T03:18:40;100603.88;;;14.48;100.00
9249;BME280;4660;41.768;26.198;2023-05-16T03:21:05;100595.22;;;14.37;100.00
9249;BME280;4660;41.768;26.198;2023-05-16T03:23:31;100602.00;;;14.57;100.00
9249;BME280;4660;41.768;26.198;2023-05-16T03:25:56;100601.34;;;14.63;100.00
9249;BME280;4660;41.768;26.198;2023-05-16T03:28:22;100597.13;;;14.61;100.00
9249;BME280;4660;41.768;26.198;2023-05-16T03:30:47;100582.72;;;14.60;100.00
9249;BME280;4660;41.768;26.198;2023-05-16T03:33:13;100594.72;;;14.82;100.00
9249;BME280;4660;41.768;26.198;2023-05-16T03:35:38;100602.13;;;14.96;100.00
9249;BME280;4660;41.768;26.198;2023-05-16T03:38:04;100594.84;;;14.97;100.00
9249;BME280;4660;41.768;26.198;2023-05-16T03:40:30;100580.94;;;15.00;100.00
9249;BME280;4660;41.768;26.198;2023-05-16T03:42:55;100592.81;;;14.99;100.00
9249;BME280;4660;41.768;26.198;2023-05-16T03:45:21;100593.69;;;14.91;100.00
9249;BME280;4660;41.768;26.198;2023-05-16T03:47:49;100593.31;;;15.10;100.00
9249;BME280;4660;41.768;26.198;2023-05-16T03:50:15;100590.22;;;15.13;100.00
9249;BME280;4660;41.768;26.198;2023-05-16T03:52:41;100591.91;;;15.23;100.00
9249;BME280;4660;41.768;26.198;2023-05-16T03:55:06;100588.06;;;15.09;100.00
9249;BME280;4660;41.768;26.198;2023-05-16T03:57:33;100594.97;;;15.11;100.00
9249;BME280;4660;41.768;26.198;2023-05-16T03:59:59;100596.13;;;15.25;100.00
9249;BME280;4660;41.768;26.198;2023-05-16T04:02:24;100595.53;;;14.99;100.00
9249;BME280;4660;41.768;26.198;2023-05-16T04:04:50;100585.41;;;14.76;100.00
9249;BME280;4660;41.768;26.198;2023-05-16T04:07:16;100578.81;;;14.63;100.00
9249;BME280;4660;41.768;26.198;2023-05-16T04:09:41;100601.66;;;14.76;100.00
9249;BME280;4660;41.768;26.198;2023-05-16T04:12:07;100593.19;;;14.71;100.00
9249;BME280;4660;41.768;26.198;2023-05-16T04:14:34;100592.03;;;14.66;100.00
9249;BME280;4660;41.768;26.198;2023-05-16T04:17:00;100596.91;;;14.95;100.00
9249;BME280;4660;41.768;26.198;2023-05-16T04:19:25;100603.31;;;15.02;100.00
9249;BME280;4660;41.768;26.198;2023-05-16T04:21:51;100607.91;;;15.01;100.00
9249;BME280;4660;41.768;26.198;2023-05-16T04:24:17;100601.78;;;14.99;100.00
9249;BME280;4660;41.768;26.198;2023-05-16T04:26:43;100598.09;;;15.00;100.00
9249;BME280;4660;41.768;26.198;2023-05-16T04:29:08;100600.78;;;15.00;100.00
9249;BME280;4660;41.768;26.198;2023-05-16T04:31:34;100608.91;;;15.08;100.00
9249;BME280;4660;41.768;26.198;2023-05-16T04:34:01;100603.44;;;15.17;100.00
9249;BME280;4660;41.768;26.198;2023-05-16T04:36:26;100609.78;;;15.40;100.00
9249;BME280;4660;41.768;26.198;2023-05-16T04:38:55;100612.25;;;15.19;100.00
9249;BME280;4660;41.768;26.198;2023-05-16T04:41:21;100610.91;;;15.06;100.00
9249;BME280;4660;41.768;26.198;2023-05-16T04:43:47;100607.47;;;15.29;100.00
9249;BME280;4660;41.768;26.198;2023-05-16T04:46:12;100610.53;;;15.26;100.00
9249;BME280;4660;41.768;26.198;2023-05-16T04:48:40;100594.22;;;15.34;100.00
9249;BME280;4660;41.768;26.198;2023-05-16T04:51:05;100599.94;;;15.47;100.00
9249;BME280;4660;41.768;26.198;2023-05-16T04:53:31;100605.69;;;15.52;100.00
9249;BME280;4660;41.768;26.198;2023-05-16T04:55:56;100614.16;;;15.57;100.00
9249;BME280;4660;41.768;26.198;2023-05-16T04:58:22;100625.00;;;15.65;100.00
9249;BME280;4660;41.768;26.198;2023-05-16T05:00:50;100625.13;;;15.64;100.00
9249;BME280;4660;41.768;26.198;2023-05-16T05:03:15;100619.56;;;15.65;100.00
9249;BME280;4660;41.768;26.198;2023-05-16T05:05:42;100623.72;;;15.76;100.00
9249;BME280;4660;41.768;26.198;2023-05-16T05:08:08;100619.72;;;15.72;100.00
9249;BME280;4660;41.768;26.198;2023-05-16T05:10:34;100600.72;;;15.64;100.00
9249;BME280;4660;41.768;26.198;2023-05-16T05:13:00;100624.94;;;15.74;100.00
9249;BME280;4660;41.768;26.198;2023-05-16T05:15:25;100620.69;;;15.79;100.00
9249;BME280;4660;41.768;26.198;2023-05-16T05:17:51;100614.91;;;15.82;100.00
9249;BME280;4660;41.768;26.198;2023-05-16T05:20:16;100622.72;;;15.77;100.00
9249;BME280;4660;41.768;26.198;2023-05-16T05:22:42;100612.00;;;15.84;100.00
9249;BME280;4660;41.768;26.198;2023-05-16T05:25:07;100606.13;;;16.03;100.00
9249;BME280;4660;41.768;26.198;2023-05-16T05:27:33;100617.34;;;16.23;100.00
9249;BME280;4660;41.768;26.198;2023-05-16T05:29:59;100610.13;;;16.38;100.00
9249;BME280;4660;41.768;26.198;2023-05-16T05:32:24;100613.34;;;16.57;100.00
9249;BME280;4660;41.768;26.198;2023-05-16T05:34:50;100616.75;;;16.59;100.00
9249;BME280;4660;41.768;26.198;2023-05-16T05:37:17;100610.88;;;16.70;100.00
9249;BME280;4660;41.768;26.198;2023-05-16T05:39:42;100615.59;;;16.76;100.00
9249;BME280;4660;41.768;26.198;2023-05-16T05:42:08;100611.88;;;16.92;100.00
9249;BME280;4660;41.768;26.198;2023-05-16T05:44:33;100601.38;;;16.89;100.00
9249;BME280;4660;41.768;26.198;2023-05-16T05:46:59;100612.81;;;16.99;100.00
9249;BME280;4660;41.768;26.198;2023-05-16T05:49:25;100596.06;;;17.10;100.00
9249;BME280;4660;41.768;26.198;2023-05-16T05:51:51;100606.53;;;17.43;100.00
9249;BME280;4660;41.768;26.198;2023-05-16T05:54:18;100592.06;;;17.57;100.00
9249;BME280;4660;41.768;26.198;2023-05-16T05:56:43;100587.84;;;17.69;100.00
9249;BME280;4660;41.768;26.198;2023-05-16T05:59:09;100595.94;;;17.48;100.00
9249;BME280;4660;41.768;26.198;2023-05-16T06:01:35;100595.41;;;17.38;100.00
9249;BME280;4660;41.768;26.198;2023-05-16T06:04:00;100598.94;;;17.53;100.00
9249;BME280;4660;41.768;26.198;2023-05-16T06:06:26;100596.13;;;17.61;100.00
9249;BME280;4660;41.768;26.198;2023-05-16T06:08:52;100607.13;;;18.04;100.00
9249;BME280;4660;41.768;26.198;2023-05-16T06:11:18;100608.41;;;17.86;100.00
9249;BME280;4660;41.768;26.198;2023-05-16T06:13:43;100605.50;;;17.73;100.00
9249;BME280;4660;41.768;26.198;2023-05-16T06:16:09;100578.31;;;17.73;100.00
9249;BME280;4660;41.768;26.198;2023-05-16T06:18:35;100609.72;;;18.12;100.00
9249;BME280;4660;41.768;26.198;2023-05-16T06:21:00;100611.81;;;18.31;100.00
9249;BME280;4660;41.768;26.198;2023-05-16T06:23:26;100603.78;;;18.45;100.00
9249;BME280;4660;41.768;26.198;2023-05-16T06:25:51;100608.75;;;18.41;100.00
9249;BME280;4660;41.768;26.198;2023-05-16T06:28:17;100592.09;;;18.29;100.00
9249;BME280;4660;41.768;26.198;2023-05-16T06:30:43;100582.75;;;18.17;100.00
9249;BME280;4660;41.768;26.198;2023-05-16T06:33:08;100591.44;;;18.06;100.00
9249;BME280;4660;41.768;26.198;2023-05-16T06:35:34;100585.53;;;18.24;100.00
9249;BME280;4660;41.768;26.198;2023-05-16T06:37:59;100585.84;;;18.57;100.00
9249;BME280;4660;41.768;26.198;2023-05-16T06:40:25;100599.06;;;18.81;100.00
9249;BME280;4660;41.768;26.198;2023-05-16T06:42:50;100600.59;;;18.90;100.00
9249;BME280;4660;41.768;26.198;2023-05-16T06:45:16;100596.44;;;18.94;100.00
9249;BME280;4660;41.768;26.198;2023-05-16T06:47:41;100596.25;;;18.68;100.00
9249;BME280;4660;41.768;26.198;2023-05-16T06:50:07;100578.69;;;18.56;100.00
9249;BME280;4660;41.768;26.198;2023-05-16T06:52:33;100579.25;;;18.66;100.00
9249;BME280;4660;41.768;26.198;2023-05-16T06:54:58;100578.25;;;19.02;100.00
9249;BME280;4660;41.768;26.198;2023-05-16T06:57:24;100574.06;;;19.06;100.00
9249;BME280;4660;41.768;26.198;2023-05-16T06:59:49;100568.78;;;18.97;100.00
9249;BME280;4660;41.768;26.198;2023-05-16T07:02:15;100572.19;;;19.06;100.00
9249;BME280;4660;41.768;26.198;2023-05-16T07:04:40;100568.16;;;19.30;100.00
9249;BME280;4660;41.768;26.198;2023-05-16T07:07:06;100558.34;;;19.49;100.00
9249;BME280;4660;41.768;26.198;2023-05-16T07:09:33;100554.47;;;19.71;100.00
9249;BME280;4660;41.768;26.198;2023-05-16T07:11:59;100574.06;;;19.82;100.00
9249;BME280;4660;41.768;26.198;2023-05-16T07:14:25;100560.56;;;19.67;100.00
9249;BME280;4660;41.768;26.198;2023-05-16T07:16:50;100564.38;;;19.86;100.00
9249;BME280;4660;41.768;26.198;2023-05-16T07:19:16;100569.81;;;19.72;100.00
9249;BME280;4660;41.768;26.198;2023-05-16T07:21:42;100568.56;;;19.75;100.00
9249;BME280;4660;41.768;26.198;2023-05-16T07:24:07;100548.72;;;19.53;100.00
9249;BME280;4660;41.768;26.198;2023-05-16T07:26:33;100561.44;;;19.81;100.00
9249;BME280;4660;41.768;26.198;2023-05-16T07:28:58;100548.06;;;20.05;100.00
9249;BME280;4660;41.768;26.198;2023-05-16T07:31:24;100555.66;;;20.30;100.00
9249;BME280;4660;41.768;26.198;2023-05-16T07:33:50;100550.88;;;20.45;100.00
9249;BME280;4660;41.768;26.198;2023-05-16T07:36:15;100552.78;;;20.58;100.00
9249;BME280;4660;41.768;26.198;2023-05-16T07:38:41;100572.94;;;20.64;100.00
9249;BME280;4660;41.768;26.198;2023-05-16T07:41:08;100564.94;;;20.69;100.00
9249;BME280;4660;41.768;26.198;2023-05-16T07:43:33;100554.41;;;20.85;100.00
9249;BME280;4660;41.768;26.198;2023-05-16T07:46:03;100556.03;;;21.06;100.00
9249;BME280;4660;41.768;26.198;2023-05-16T07:48:29;100558.13;;;21.24;100.00
9249;BME280;4660;41.768;26.198;2023-05-16T07:50:54;100540.28;;;21.08;100.00
9249;BME280;4660;41.768;26.198;2023-05-16T07:53:20;100526.19;;;20.98;100.00
9249;BME280;4660;41.768;26.198;2023-05-16T07:55:47;100543.63;;;21.17;100.00
9249;BME280;4660;41.768;26.198;2023-05-16T07:58:12;100546.34;;;21.17;100.00
9249;BME280;4660;41.768;26.198;2023-05-16T08:00:38;100527.16;;;21.37;100.00
9249;BME280;4660;41.768;26.198;2023-05-16T08:03:04;100526.09;;;21.45;100.00
9249;BME280;4660;41.768;26.198;2023-05-16T08:05:31;100510.25;;;21.53;100.00
9249;BME280;4660;41.768;26.198;2023-05-16T08:07:56;100511.47;;;21.57;100.00
9249;BME280;4660;41.768;26.198;2023-05-16T08:10:22;100502.69;;;21.42;100.00
9249;BME280;4660;41.768;26.198;2023-05-16T08:12:48;100483.09;;;21.52;100.00
9249;BME280;4660;41.768;26.198;2023-05-16T08:15:14;100495.16;;;21.76;100.00
9249;BME280;4660;41.768;26.198;2023-05-16T08:17:40;100481.63;;;21.87;100.00
9249;BME280;4660;41.768;26.198;2023-05-16T08:20:06;100474.22;;;21.88;100.00
9249;BME280;4660;41.768;26.198;2023-05-16T08:22:32;100464.03;;;22.02;100.00
9249;BME280;4660;41.768;26.198;2023-05-16T08:24:58;100479.66;;;22.26;100.00
9249;BME280;4660;41.768;26.198;2023-05-16T08:27:27;100478.69;;;22.39;100.00
9249;BME280;4660;41.768;26.198;2023-05-16T08:29:53;100487.41;;;22.54;100.00
9249;BME280;4660;41.768;26.198;2023-05-16T08:32:20;100485.31;;;22.74;100.00
9249;BME280;4660;41.768;26.198;2023-05-16T08:34:45;100477.09;;;22.74;100.00
9249;BME280;4660;41.768;26.198;2023-05-16T08:37:11;100493.31;;;23.01;100.00
9249;BME280;4660;41.768;26.198;2023-05-16T08:39:37;100479.88;;;23.29;100.00
9249;BME280;4660;41.768;26.198;2023-05-16T08:42:04;100459.97;;;23.64;100.00
9249;BME280;4660;41.768;26.198;2023-05-16T08:44:30;100492.47;;;23.49;100.00
9249;BME280;4660;41.768;26.198;2023-05-16T08:46:56;100498.88;;;23.43;100.00
9249;BME280;4660;41.768;26.198;2023-05-16T08:49:26;100489.28;;;23.52;100.00
9249;BME280;4660;41.768;26.198;2023-05-16T08:51:56;100455.84;;;23.25;100.00
9249;BME280;4660;41.768;26.198;2023-05-16T08:54:23;100481.06;;;23.33;100.00
9249;BME280;4660;41.768;26.198;2023-05-16T08:56:48;100503.00;;;23.52;100.00
9249;BME280;4660;41.768;26.198;2023-05-16T08:59:15;100490.56;;;23.68;100.00
9249;BME280;4660;41.768;26.198;2023-05-16T09:01:41;100487.91;;;23.43;100.00
9249;BME280;4660;41.768;26.198;2023-05-16T09:04:07;100504.09;;;23.51;100.00
9249;BME280;4660;41.768;26.198;2023-05-16T09:06:36;100479.78;;;23.36;100.00
9249;BME280;4660;41.768;26.198;2023-05-16T09:09:02;100495.66;;;23.64;100.00
9249;BME280;4660;41.768;26.198;2023-05-16T09:11:29;100477.34;;;23.76;100.00
9249;BME280;4660;41.768;26.198;2023-05-16T09:13:54;100487.00;;;23.79;100.00
9249;BME280;4660;41.768;26.198;2023-05-16T09:16:20;100497.69;;;23.87;100.00
9249;BME280;4660;41.768;26.198;2023-05-16T09:18:53;100484.44;;;23.96;100.00
9249;BME280;4660;41.768;26.198;2023-05-16T09:21:21;100476.16;;;23.72;100.00
9249;BME280;4660;41.768;26.198;2023-05-16T09:23:48;100478.75;;;23.67;100.00
9249;BME280;4660;41.768;26.198;2023-05-16T09:26:14;100491.13;;;24.00;100.00
9249;BME280;4660;41.768;26.198;2023-05-16T09:28:43;100486.53;;;24.24;100.00
9249;BME280;4660;41.768;26.198;2023-05-16T09:31:25;100489.22;;;24.65;100.00
9249;BME280;4660;41.768;26.198;2023-05-16T09:33:57;100493.63;;;25.02;100.00
9249;BME280;4660;41.768;26.198;2023-05-16T09:36:23;100494.00;;;24.70;100.00
9249;BME280;4660;41.768;26.198;2023-05-16T09:38:53;100476.09;;;24.14;100.00
9249;BME280;4660;41.768;26.198;2023-05-16T09:41:20;100496.16;;;24.56;100.00
9249;BME280;4660;41.768;26.198;2023-05-16T09:43:46;100488.13;;;24.55;100.00
9249;BME280;4660;41.768;26.198;2023-05-16T09:46:15;100487.63;;;24.93;100.00
9249;BME280;4660;41.768;26.198;2023-05-16T09:48:43;100486.34;;;24.84;100.00
9249;BME280;4660;41.768;26.198;2023-05-16T09:51:11;100494.13;;;24.75;100.00
9249;BME280;4660;41.768;26.198;2023-05-16T09:53:37;100477.16;;;24.66;100.00
9249;BME280;4660;41.768;26.198;2023-05-16T09:56:09;100478.53;;;24.92;100.00
9249;BME280;4660;41.768;26.198;2023-05-16T09:58:39;100477.84;;;25.09;100.00
9249;BME280;4660;41.768;26.198;2023-05-16T10:01:06;100472.66;;;25.24;100.00
9249;BME280;4660;41.768;26.198;2023-05-16T10:03:37;100478.59;;;25.33;100.00
9249;BME280;4660;41.768;26.198;2023-05-16T10:06:04;100475.28;;;25.19;100.00
9249;BME280;4660;41.768;26.198;2023-05-16T10:08:32;100477.78;;;25.32;100.00
9249;BME280;4660;41.768;26.198;2023-05-16T10:11:01;100468.66;;;25.32;100.00
9249;BME280;4660;41.768;26.198;2023-05-16T10:13:29;100464.97;;;25.26;100.00
9249;BME280;4660;41.768;26.198;2023-05-16T10:15:56;100469.91;;;25.24;100.00
9249;BME280;4660;41.768;26.198;2023-05-16T10:18:29;100459.47;;;25.26;100.00
9249;BME280;4660;41.768;26.198;2023-05-16T10:21:05;100454.94;;;25.48;100.00
9249;BME280;4660;41.768;26.198;2023-05-16T10:23:32;100437.44;;;25.55;100.00
9249;BME280;4660;41.768;26.198;2023-05-16T10:26:01;100438.63;;;25.30;100.00
9249;BME280;4660;41.768;26.198;2023-05-16T10:28:28;100440.22;;;25.43;100.00
9249;BME280;4660;41.768;26.198;2023-05-16T10:30:54;100433.13;;;25.59;100.00
9249;BME280;4660;41.768;26.198;2023-05-16T10:33:20;100419.22;;;25.82;100.00
9249;BME280;4660;41.768;26.198;2023-05-16T10:35:46;100403.78;;;25.81;100.00
9249;BME280;4660;41.768;26.198;2023-05-16T10:38:14;100424.34;;;25.90;100.00
9249;BME280;4660;41.768;26.198;2023-05-16T10:40:41;100421.34;;;26.09;100.00
9249;BME280;4660;41.768;26.198;2023-05-16T10:43:07;100409.13;;;26.38;100.00
9249;BME280;4660;41.768;26.198;2023-05-16T10:45:38;100409.66;;;26.57;100.00
9249;BME280;4660;41.768;26.198;2023-05-16T10:48:04;100392.56;;;26.77;100.00
9249;BME280;4660;41.768;26.198;2023-05-16T10:50:34;100384.44;;;27.09;100.00
9249;BME280;4660;41.768;26.198;2023-05-16T10:53:18;100379.47;;;26.89;100.00
9249;BME280;4660;41.768;26.198;2023-05-16T10:58:45;100367.59;;;26.67;100.00
9249;BME280;4660;41.768;26.198;2023-05-16T11:01:28;100360.00;;;26.57;100.00
9249;BME280;4660;41.768;26.198;2023-05-16T11:11:54;100340.91;;;26.33;100.00
9249;BME280;4660;41.768;26.198;2023-05-16T11:14:54;100318.34;;;26.37;100.00
9249;BME280;4660;41.768;26.198;2023-05-16T11:17:19;100344.63;;;26.83;100.00
9249;BME280;4660;41.768;26.198;2023-05-16T11:27:23;100328.69;;;26.90;100.00
9249;BME280;4660;41.768;26.198;2023-05-16T11:29:50;100319.50;;;27.06;100.00
9249;BME280;4660;41.768;26.198;2023-05-16T11:32:20;100322.44;;;27.00;100.00
9249;BME280;4660;41.768;26.198;2023-05-16T11:34:47;100310.25;;;27.18;100.00
9249;BME280;4660;41.768;26.198;2023-05-16T11:37:14;100320.66;;;27.37;100.00
9249;BME280;4660;41.768;26.198;2023-05-16T11:39:40;100328.41;;;27.40;100.00
9249;BME280;4660;41.768;26.198;2023-05-16T11:42:06;100307.47;;;27.50;100.00
9249;BME280;4660;41.768;26.198;2023-05-16T11:44:31;100306.16;;;27.52;100.00
9249;BME280;4660;41.768;26.198;2023-05-16T11:46:57;100293.06;;;27.42;100.00
9249;BME280;4660;41.768;26.198;2023-05-16T11:49:24;100295.56;;;27.44;100.00
9249;BME280;4660;41.768;26.198;2023-05-16T11:51:53;100305.19;;;27.68;100.00
9249;BME280;4660;41.768;26.198;2023-05-16T11:54:19;100287.59;;;27.80;100.00
9249;BME280;4660;41.768;26.198;2023-05-16T11:56:45;100297.66;;;27.96;100.00
9249;BME280;4660;41.768;26.198;2023-05-16T11:59:11;100287.09;;;27.88;99.91
9249;BME280;4660;41.768;26.198;2023-05-16T12:01:40;100293.22;;;27.63;100.00
9249;BME280;4660;41.768;26.198;2023-05-16T12:04:09;100280.22;;;27.58;100.00
9249;BME280;4660;41.768;26.198;2023-05-16T12:06:37;100286.34;;;27.65;100.00
9249;BME280;4660;41.768;26.198;2023-05-16T12:09:10;100292.41;;;27.62;100.00
9249;BME280;4660;41.768;26.198;2023-05-16T12:11:37;100283.97;;;27.74;99.60
9249;BME280;4660;41.768;26.198;2023-05-16T12:14:07;100308.91;;;27.84;100.00
9249;BME280;4660;41.768;26.198;2023-05-16T12:16:34;100300.16;;;27.97;98.98
9249;BME280;4660;41.768;26.198;2023-05-16T12:19:02;100295.97;;;28.32;98.26
9249;BME280;4660;41.768;26.198;2023-05-16T12:21:30;100311.09;;;28.82;96.49
9249;BME280;4660;41.768;26.198;2023-05-16T12:23:56;100307.03;;;28.95;95.53
9249;BME280;4660;41.768;26.198;2023-05-16T12:26:27;100295.97;;;29.20;90.90
9249;BME280;4660;41.768;26.198;2023-05-16T12:29:02;100302.38;;;29.31;91.56
9249;BME280;4660;41.768;26.198;2023-05-16T12:31:30;100306.28;;;29.45;90.86
9249;BME280;4660;41.768;26.198;2023-05-16T12:33:56;100304.88;;;29.38;89.94
9249;BME280;4660;41.768;26.198;2023-05-16T12:36:23;100307.94;;;29.46;89.40
9249;BME280;4660;41.768;26.198;2023-05-16T12:38:49;100312.13;;;29.74;89.19
9249;BME280;4660;41.768;26.198;2023-05-16T12:41:22;100301.00;;;29.95;85.57
9249;BME280;4660;41.768;26.198;2023-05-16T12:43:48;100296.56;;;30.09;83.75
9249;BME280;4660;41.768;26.198;2023-05-16T12:46:14;100298.75;;;30.07;84.52
9249;BME280;4660;41.768;26.198;2023-05-16T12:48:40;100293.28;;;29.66;83.78
9249;BME280;4660;41.768;26.198;2023-05-16T12:51:17;100301.03;;;29.59;86.04
9249;BME280;4660;41.768;26.198;2023-05-16T12:53:47;100284.38;;;29.74;85.91
9249;BME280;4660;41.768;26.198;2023-05-16T12:56:13;100294.91;;;29.77;85.84
9249;BME280;4660;41.768;26.198;2023-05-16T12:58:40;100297.69;;;29.82;85.10
9249;BME280;4660;41.768;26.198;2023-05-16T13:01:06;100293.22;;;29.97;86.10
9249;BME280;4660;41.768;26.198;2023-05-16T13:03:32;100291.53;;;30.06;83.64
9249;BME280;4660;41.768;26.198;2023-05-16T13:05:59;100288.75;;;30.06;84.11
9249;BME280;4660;41.768;26.198;2023-05-16T13:08:25;100296.56;;;29.88;84.39
9249;BME280;4660;41.768;26.198;2023-05-16T13:10:52;100291.84;;;29.79;85.32
9249;BME280;4660;41.768;26.198;2023-05-16T13:13:17;100296.63;;;29.58;86.39
9249;BME280;4660;41.768;26.198;2023-05-16T13:15:46;100286.34;;;29.53;89.95
9249;BME280;4660;41.768;26.198;2023-05-16T13:18:13;100270.47;;;29.13;91.90
9249;BME280;4660;41.768;26.198;2023-05-16T13:20:39;100283.94;;;28.69;93.96
9249;BME280;4660;41.768;26.198;2023-05-16T13:23:04;100272.50;;;28.45;95.00